CFM weather

Conklin (Leismer) Airport
Conklin, Alberta, Canada

Public forecast

Using degrees Celsius for public forecast. Weather courtesy of forecast.io.

Closest aviation weather report (METAR) to Conklin (Leismer) Airport

Closest report is Fort McMurray Airport, 57.6 nm (106.6 km) N. Retrieved 2020/07/11 20:00 UTC (20 minutes ago):

CYMM 112000Z AUTO 29009KT 260V320 9SM CLR 25/10 A2988 RMK SLP124 DENSITY ALT 2700FT

Closest aviation forecast (TAF) to Conklin (Leismer) Airport

Closest forecast is Fort McMurray Airport, 57.6 nm (106.6 km) N. Retrieved 2020/07/11 19:42 UTC (38 minutes ago):

TAF CYMM 111838Z 1119/1207 24010KT P6SM FEW060 FM112100 24008KT P6SM BKN080 BECMG 1123/1201 18008KT FM120300 18008KT P6SM BKN080 TEMPO 1203/1207 P6SM -SHRA BKN060 BECMG 1203/1205 26008KT RMK FCST BASED ON AUTO OBS NXT FCST BY 120100Z